Templeton, Iowa
Current Conditions -  °F | °C
As of 8:55 AM on Monday 22 Dec 2014 (Local Time) from KCIN Reporting Station
Haze Haze  
Wind Chill: 31°   Ceiling: 500
Heat Index: 39°   Visibility: 2.5mi
Dew Point: 39°   Wind: 14mph
Humidity: 100%   Direction: 150°SSE
Pressure: 29.56"   Gusts: NA
Location:  41.92°N, 94.94°W
Report Text: KCIN 221455Z AUTO 15012KT 2 1/2SM BR OVC005 04/04 A2956 RMK AO2
Loading
Personal Weather Stations






























Interactive Weather Map New forecast layout! Learn more

10-Day Weather Forecast

Advertisements
Track Severe Weather on mobile